createdAt,value
2023-05-23T00:02:15.567Z,3.95
2023-05-23T00:04:46.344Z,4.53
2023-05-23T00:07:17.552Z,5.07
2023-05-23T00:09:46.370Z,5.30
2023-05-23T00:12:14.733Z,6.35
2023-05-23T00:14:45.274Z,4.07
2023-05-23T00:17:17.585Z,6.38
2023-05-23T00:19:47.186Z,4.28
2023-05-23T00:22:16.725Z,3.53
2023-05-23T00:24:47.607Z,5.68
2023-05-23T00:27:16.356Z,3.47
2023-05-23T00:29:45.915Z,2.72
2023-05-23T00:32:15.549Z,2.65
2023-05-23T00:34:45.720Z,2.40
2023-05-23T00:37:16.619Z,4.35
2023-05-23T00:39:45.750Z,3.53
2023-05-23T00:42:15.670Z,2.97
2023-05-23T00:44:48.402Z,2.80
2023-05-23T00:47:21.156Z,2.45
2023-05-23T00:49:50.669Z,2.97
2023-05-23T00:52:20.066Z,2.05
2023-05-23T00:54:49.363Z,2.80
2023-05-23T00:57:20.601Z,8.32
2023-05-23T00:59:50.188Z,3.50
2023-05-23T01:02:19.093Z,4.03
2023-05-23T01:04:54.243Z,3.88
2023-05-23T01:07:22.884Z,3.28
2023-05-23T01:09:51.373Z,2.97
2023-05-23T01:12:25.020Z,2.72
2023-05-23T01:15:11.202Z,3.15
2023-05-23T01:17:52.160Z,2.55
2023-05-23T01:20:23.634Z,3.72
2023-05-23T01:23:00.365Z,2.38
2023-05-23T01:25:29.036Z,2.45
2023-05-23T01:27:58.474Z,2.65
2023-05-23T01:30:27.249Z,2.22
2023-05-23T01:33:06.808Z,2.15
2023-05-23T01:35:35.555Z,3.47
2023-05-23T01:38:06.934Z,2.53
2023-05-23T01:40:39.080Z,2.30
2023-05-23T01:43:07.953Z,2.30
2023-05-23T01:45:48.259Z,2.00
2023-05-23T01:48:18.136Z,2.33
2023-05-23T01:50:47.324Z,3.03
2023-05-23T01:53:20.003Z,2.25
2023-05-23T01:55:52.522Z,2.58
2023-05-23T01:58:23.939Z,3.00
2023-05-23T02:00:56.004Z,2.08
2023-05-23T02:03:37.990Z,3.17
2023-05-23T02:06:06.580Z,3.65
2023-05-23T02:08:39.203Z,5.47
2023-05-23T02:11:10.651Z,5.85
2023-05-23T02:13:39.299Z,3.00
2023-05-23T02:16:08.589Z,3.10
2023-05-23T02:18:41.124Z,5.38
2023-05-23T02:21:16.769Z,3.17
2023-05-23T02:23:47.455Z,3.97
2023-05-23T02:26:19.338Z,3.28
2023-05-23T02:28:50.312Z,2.67
2023-05-23T02:31:21.530Z,4.53
2023-05-23T02:33:50.054Z,3.47
2023-05-23T02:36:20.790Z,3.15
2023-05-23T02:38:50.691Z,2.42
2023-05-23T02:41:21.291Z,2.88
2023-05-23T02:43:52.387Z,2.92
2023-05-23T02:46:22.158Z,2.28
2023-05-23T02:48:53.108Z,3.30
2023-05-23T02:51:24.320Z,2.20
2023-05-23T02:53:53.717Z,3.55
2023-05-23T02:56:23.476Z,3.45
2023-05-23T02:58:54.381Z,6.30
2023-05-23T03:01:23.592Z,3.17
2023-05-23T03:03:53.235Z,4.03
2023-05-23T03:06:25.333Z,3.78
2023-05-23T03:08:57.061Z,4.20
2023-05-23T03:11:28.141Z,5.45
2023-05-23T03:13:58.538Z,8.65
2023-05-23T03:16:27.815Z,5.20
2023-05-23T03:18:57.677Z,4.25
2023-05-23T03:21:31.303Z,4.28
2023-05-23T03:23:59.630Z,3.97
2023-05-23T03:26:28.609Z,3.42
2023-05-23T03:28:58.406Z,3.38
2023-05-23T03:31:27.066Z,3.92
2023-05-23T03:33:57.011Z,3.65
2023-05-23T03:36:28.298Z,10.60
2023-05-23T03:38:57.467Z,3.95
2023-05-23T03:41:27.860Z,4.65
2023-05-23T03:44:00.769Z,4.00
2023-05-23T03:46:33.033Z,5.03
2023-05-23T03:49:05.558Z,3.70
2023-05-23T03:51:35.231Z,5.70
2023-05-23T03:54:04.715Z,5.18
2023-05-23T03:56:37.608Z,5.80
2023-05-23T03:59:09.938Z,5.40
2023-05-23T04:01:40.711Z,4.88
2023-05-23T04:04:09.416Z,8.73
2023-05-23T04:06:41.568Z,7.22
2023-05-23T04:09:16.987Z,5.03
2023-05-23T04:11:49.522Z,4.72
2023-05-23T04:14:20.178Z,6.03
2023-05-23T04:16:49.044Z,8.63
2023-05-23T04:19:18.590Z,5.75
2023-05-23T04:21:47.059Z,5.57
2023-05-23T04:24:18.876Z,3.72
2023-05-23T04:26:47.939Z,4.88
2023-05-23T04:29:17.609Z,4.20
2023-05-23T04:31:46.842Z,2.83
2023-05-23T04:34:22.515Z,3.47
2023-05-23T04:36:53.894Z,4.53
2023-05-23T04:39:25.581Z,4.32
2023-05-23T04:42:17.586Z,3.13
2023-05-23T04:45:04.097Z,2.88
2023-05-23T04:47:56.554Z,6.70
2023-05-23T04:50:37.992Z,4.20
2023-05-23T04:53:09.648Z,5.60
2023-05-23T04:55:41.446Z,5.65
2023-05-23T04:58:15.761Z,7.60
2023-05-23T05:00:44.899Z,8.98
2023-05-23T05:03:26.781Z,7.32
2023-05-23T05:05:59.281Z,4.72
2023-05-23T05:08:28.551Z,7.32
2023-05-23T05:10:59.442Z,8.38
2023-05-23T05:13:28.652Z,9.90
2023-05-23T05:15:58.849Z,11.07
2023-05-23T05:18:32.944Z,13.05
2023-05-23T05:21:05.282Z,8.35
2023-05-23T05:23:34.988Z,10.10
2023-05-23T05:26:05.671Z,6.43
2023-05-23T05:28:36.568Z,9.98
2023-05-23T05:31:08.501Z,8.25
2023-05-23T05:33:47.763Z,7.30
2023-05-23T05:36:17.811Z,9.80
2023-05-23T05:38:49.733Z,9.45
2023-05-23T05:41:22.408Z,11.50
2023-05-23T05:43:52.991Z,12.90
2023-05-23T05:46:25.879Z,9.13
2023-05-23T05:48:55.859Z,9.88
2023-05-23T05:51:27.339Z,10.80
2023-05-23T05:53:56.489Z,6.70
2023-05-23T05:56:26.194Z,6.70
2023-05-23T05:58:58.360Z,7.80
2023-05-23T06:01:30.805Z,7.78
2023-05-23T06:04:00.041Z,8.27
2023-05-23T06:06:30.357Z,9.85
2023-05-23T06:09:01.673Z,9.30
2023-05-23T06:11:39.209Z,7.00
2023-05-23T06:14:08.854Z,7.97
2023-05-23T06:19:13.217Z,8.90
2023-05-23T06:21:45.362Z,5.30
2023-05-23T06:24:17.275Z,8.02
2023-05-23T06:26:48.535Z,8.80
2023-05-23T06:29:20.115Z,7.95
2023-05-23T06:31:48.414Z,11.38
2023-05-23T06:34:17.556Z,6.20
2023-05-23T06:36:48.735Z,6.38
2023-05-23T06:39:21.371Z,8.02
2023-05-23T06:42:01.137Z,7.18
2023-05-23T06:44:53.027Z,6.90
2023-05-23T06:49:55.947Z,4.32
2023-05-23T06:52:25.099Z,6.57
2023-05-23T06:54:53.692Z,4.47
2023-05-23T06:57:25.035Z,9.02
2023-05-23T06:59:54.512Z,6.95
2023-05-23T07:02:22.967Z,7.78
2023-05-23T07:04:53.561Z,7.43
2023-05-23T07:07:48.411Z,10.07
2023-05-23T07:10:17.718Z,6.05
2023-05-23T07:12:50.463Z,4.80
2023-05-23T07:15:23.329Z,5.68
2023-05-23T07:18:16.281Z,5.18
2023-05-23T07:20:51.108Z,6.80
2023-05-23T07:23:33.487Z,9.18
2023-05-23T07:26:03.329Z,8.33
2023-05-23T07:28:42.200Z,5.05
2023-05-23T07:31:18.349Z,5.10
2023-05-23T07:33:56.726Z,10.13
2023-05-23T07:36:35.687Z,8.90
2023-05-23T07:39:05.312Z,8.00
2023-05-23T07:41:34.775Z,12.05
2023-05-23T07:44:07.076Z,11.18
2023-05-23T07:46:39.026Z,11.07
2023-05-23T07:49:08.390Z,9.35
2023-05-23T07:51:41.713Z,11.50
2023-05-23T07:54:15.751Z,12.20
2023-05-23T07:56:45.210Z,11.93
2023-05-23T07:59:19.599Z,8.45
2023-05-23T08:01:51.281Z,8.40
2023-05-23T08:04:21.946Z,8.63
2023-05-23T08:07:04.112Z,8.02
2023-05-23T08:09:48.704Z,15.68
2023-05-23T08:12:20.372Z,10.77
2023-05-23T08:14:53.803Z,15.57
2023-05-23T08:17:28.123Z,15.80
2023-05-23T08:20:01.060Z,13.80
2023-05-23T08:22:42.798Z,17.10
2023-05-23T08:25:14.425Z,20.20
2023-05-23T08:27:44.908Z,17.38
2023-05-23T08:30:38.170Z,16.80
2023-05-23T08:33:25.387Z,17.02
2023-05-23T08:36:01.260Z,15.40
2023-05-23T08:38:35.413Z,12.82
2023-05-23T08:41:25.939Z,11.20
2023-05-23T08:44:01.684Z,12.43
2023-05-23T08:46:41.131Z,13.15
2023-05-23T08:49:11.994Z,8.80
2023-05-23T08:51:44.089Z,10.60
2023-05-23T08:54:22.409Z,10.48
2023-05-23T08:56:52.241Z,6.43
2023-05-23T08:59:24.743Z,8.63
2023-05-23T09:01:54.530Z,8.35
2023-05-23T09:04:26.071Z,19.05
2023-05-23T09:07:03.943Z,16.20
2023-05-23T09:09:34.617Z,21.98
2023-05-23T09:12:06.152Z,26.23
2023-05-23T09:14:37.446Z,28.48
2023-05-23T09:17:09.650Z,26.10
2023-05-23T09:19:43.050Z,25.15
2023-05-23T09:22:27.035Z,26.08
2023-05-23T09:25:06.164Z,15.48
2023-05-23T09:27:37.191Z,9.63
2023-05-23T09:30:11.306Z,13.10
2023-05-23T09:33:03.139Z,5.07
2023-05-23T09:35:44.358Z,4.40
2023-05-23T09:38:16.126Z,4.10
2023-05-23T09:40:46.848Z,5.43
2023-05-23T09:43:18.224Z,2.72
2023-05-23T09:45:54.670Z,5.82
2023-05-23T09:48:30.855Z,12.02
2023-05-23T09:51:04.682Z,11.82
2023-05-23T09:53:35.922Z,23.60
2023-05-23T09:56:05.074Z,15.95
2023-05-23T09:58:36.182Z,14.57
2023-05-23T10:01:11.742Z,13.70
2023-05-23T10:03:47.122Z,14.98
2023-05-23T10:06:47.015Z,14.40
2023-05-23T10:09:18.758Z,15.95
2023-05-23T10:12:17.429Z,18.95
2023-05-23T10:14:48.447Z,26.20
2023-05-23T10:17:20.174Z,17.33
2023-05-23T10:19:54.194Z,10.70
2023-05-23T10:22:22.961Z,9.00
2023-05-23T10:24:53.989Z,7.70
2023-05-23T10:27:22.552Z,6.43
2023-05-23T10:29:51.501Z,7.22
2023-05-23T10:32:21.133Z,6.28
2023-05-23T10:35:01.106Z,7.30
2023-05-23T10:37:58.082Z,6.70
2023-05-23T10:40:33.583Z,3.75
2023-05-23T10:43:08.600Z,5.47
2023-05-23T10:45:49.731Z,6.45
2023-05-23T10:48:22.045Z,3.83
2023-05-23T10:51:11.307Z,4.35
2023-05-23T10:53:40.897Z,4.82
2023-05-23T10:56:09.687Z,3.72
2023-05-23T10:58:41.898Z,3.95
2023-05-23T11:01:18.091Z,2.08
2023-05-23T11:03:52.047Z,3.22
2023-05-23T11:06:32.762Z,3.95
2023-05-23T11:09:08.180Z,5.72
2023-05-23T11:11:52.233Z,4.57
2023-05-23T11:14:32.507Z,5.55
2023-05-23T11:17:01.824Z,4.45
2023-05-23T11:19:30.475Z,4.90
2023-05-23T11:22:02.368Z,3.45
2023-05-23T11:24:50.526Z,1.90
2023-05-23T11:27:29.319Z,3.25
2023-05-23T11:30:10.212Z,10.75
2023-05-23T11:32:54.024Z,1.77
2023-05-23T11:35:22.843Z,2.90
2023-05-23T11:37:53.656Z,3.92
2023-05-23T11:40:27.084Z,3.28
2023-05-23T11:42:58.374Z,2.55
2023-05-23T11:45:27.287Z,5.55
2023-05-23T11:47:56.333Z,2.85
2023-05-23T11:50:25.618Z,2.53
2023-05-23T11:52:55.851Z,2.45
2023-05-23T11:55:26.984Z,2.22
2023-05-23T11:57:56.888Z,4.55
2023-05-23T12:00:26.651Z,2.03
2023-05-23T12:03:14.483Z,4.75
2023-05-23T12:05:45.622Z,4.90
2023-05-23T12:08:15.419Z,2.53
2023-05-23T12:11:10.300Z,1.88
2023-05-23T12:13:42.306Z,3.90
2023-05-23T12:16:15.555Z,4.18
2023-05-23T12:18:44.631Z,6.25
2023-05-23T12:21:14.631Z,3.00
2023-05-23T12:23:43.331Z,5.35
2023-05-23T12:26:13.870Z,6.97
2023-05-23T12:28:45.220Z,9.48
2023-05-23T12:31:17.455Z,4.25
2023-05-23T12:33:50.420Z,1.42
2023-05-23T12:36:23.123Z,4.10
2023-05-23T12:38:54.647Z,2.50
2023-05-23T12:41:23.793Z,2.65
2023-05-23T12:43:59.003Z,2.20
2023-05-23T12:46:33.244Z,3.50
2023-05-23T12:49:04.883Z,3.58
2023-05-23T12:51:37.690Z,1.80
2023-05-23T12:54:07.004Z,3.75
2023-05-23T12:56:38.366Z,2.08
2023-05-23T12:59:10.492Z,3.70
2023-05-23T13:01:39.078Z,3.70
2023-05-23T13:04:08.627Z,8.35
2023-05-23T13:06:38.748Z,3.65
2023-05-23T13:09:08.017Z,2.10
2023-05-23T13:11:40.682Z,2.92
2023-05-23T13:16:53.434Z,5.68
2023-05-23T13:19:22.927Z,2.67
2023-05-23T13:21:52.662Z,2.78
2023-05-23T13:24:27.913Z,1.75
2023-05-23T13:26:58.399Z,5.38
2023-05-23T13:29:31.600Z,3.03
2023-05-23T13:32:03.025Z,4.88
2023-05-23T13:34:37.468Z,3.17
2023-05-23T13:37:08.998Z,2.58
2023-05-23T13:39:37.524Z,3.42
2023-05-23T13:42:07.946Z,1.33
2023-05-23T13:44:37.774Z,1.95
2023-05-23T13:47:13.434Z,2.63
2023-05-23T13:49:45.399Z,4.05
2023-05-23T13:52:16.623Z,6.10
2023-05-23T13:54:47.343Z,2.67
2023-05-23T13:57:17.502Z,8.50
2023-05-23T13:59:46.405Z,3.92
2023-05-23T14:02:17.422Z,2.13
2023-05-23T14:04:47.491Z,2.42
2023-05-23T14:07:16.986Z,2.30
2023-05-23T14:09:47.444Z,2.85
2023-05-23T14:12:18.523Z,2.15
2023-05-23T14:14:46.847Z,3.35
2023-05-23T14:17:17.074Z,1.65
2023-05-23T14:19:46.825Z,2.88
2023-05-23T14:22:15.625Z,3.47
2023-05-23T14:24:47.143Z,2.22
2023-05-23T14:27:15.688Z,2.50
2023-05-23T14:29:46.575Z,2.42
2023-05-23T14:32:17.595Z,2.20
2023-05-23T14:34:46.429Z,2.45
2023-05-23T14:37:18.767Z,4.20
2023-05-23T14:39:48.793Z,1.33
2023-05-23T14:42:20.968Z,5.10
2023-05-23T14:44:49.645Z,3.42
2023-05-23T14:47:18.749Z,4.00
2023-05-23T14:49:49.178Z,1.80
2023-05-23T14:52:20.087Z,1.30
2023-05-23T14:54:48.937Z,2.10
2023-05-23T14:57:17.310Z,2.75
2023-05-23T14:59:46.436Z,6.28
2023-05-23T15:02:17.398Z,2.65
2023-05-23T15:04:48.103Z,2.53
2023-05-23T15:07:18.538Z,1.55
2023-05-23T15:09:47.734Z,7.10
2023-05-23T15:12:16.295Z,2.17
2023-05-23T15:14:45.290Z,4.55
2023-05-23T15:17:20.074Z,3.88
2023-05-23T15:19:49.100Z,3.33
2023-05-23T15:22:37.937Z,8.27
2023-05-23T15:25:08.869Z,4.88
2023-05-23T15:27:44.867Z,4.30
2023-05-23T15:30:16.292Z,3.30
2023-05-23T15:33:07.361Z,2.53
2023-05-23T15:35:36.123Z,2.05
2023-05-23T15:38:07.785Z,1.50
2023-05-23T15:40:42.095Z,6.03
2023-05-23T15:45:41.911Z,3.05
2023-05-23T15:48:11.167Z,3.88
2023-05-23T15:50:40.667Z,5.05
2023-05-23T15:53:10.149Z,4.32
2023-05-23T15:55:42.559Z,2.03
2023-05-23T15:58:14.392Z,2.10
2023-05-23T16:00:43.084Z,4.70
2023-05-23T16:03:29.329Z,1.70
2023-05-23T16:05:59.150Z,2.42
2023-05-23T16:08:28.484Z,3.78
2023-05-23T16:11:00.856Z,1.85
2023-05-23T16:13:32.216Z,7.68
2023-05-23T16:16:05.580Z,2.78
2023-05-23T16:21:08.639Z,3.08
2023-05-23T16:23:39.894Z,3.10
2023-05-23T16:26:08.332Z,4.38
2023-05-23T16:28:42.422Z,3.70
2023-05-23T16:31:15.356Z,6.78
2023-05-23T16:33:49.580Z,1.92
2023-05-23T16:36:21.052Z,2.00
2023-05-23T16:38:49.475Z,2.03
2023-05-23T16:41:18.226Z,2.10
2023-05-23T16:43:51.138Z,2.97
2023-05-23T16:46:22.781Z,7.55
2023-05-23T16:48:51.480Z,2.50
2023-05-23T16:51:20.179Z,1.67
2023-05-23T16:53:49.259Z,3.67
2023-05-23T16:56:20.019Z,2.38
2023-05-23T16:58:48.401Z,2.60
2023-05-23T17:01:20.014Z,3.72
2023-05-23T17:03:59.622Z,2.40
2023-05-23T17:06:28.317Z,2.42
2023-05-23T17:08:57.615Z,2.25
2023-05-23T17:11:28.499Z,1.52
2023-05-23T17:14:00.056Z,5.35
2023-05-23T17:16:33.194Z,3.83
2023-05-23T17:19:02.359Z,5.50
2023-05-23T17:21:31.312Z,4.32
2023-05-23T17:24:00.188Z,4.55
2023-05-23T17:26:29.708Z,3.15
2023-05-23T17:28:58.430Z,4.10
2023-05-23T17:31:29.672Z,2.78
2023-05-23T17:33:59.465Z,6.03
2023-05-23T17:36:27.866Z,1.95
2023-05-23T17:38:57.395Z,2.25
2023-05-23T17:41:26.890Z,2.60
2023-05-23T17:43:55.710Z,2.30
2023-05-23T17:46:24.850Z,1.50
2023-05-23T17:48:53.255Z,7.00
2023-05-23T17:51:22.356Z,4.38
2023-05-23T17:53:53.621Z,4.78
2023-05-23T17:56:25.346Z,4.85
2023-05-23T17:58:54.311Z,2.38
2023-05-23T18:01:24.689Z,2.28
2023-05-23T18:04:05.737Z,4.28
2023-05-23T18:06:36.511Z,1.33
2023-05-23T18:09:05.131Z,3.58
2023-05-23T18:11:38.765Z,2.55
2023-05-23T18:14:13.468Z,4.90
2023-05-23T18:16:42.135Z,5.15
2023-05-23T18:19:11.960Z,5.22
2023-05-23T18:21:41.581Z,2.97
2023-05-23T18:24:11.677Z,3.10
2023-05-23T18:26:43.177Z,3.88
2023-05-23T18:29:13.987Z,2.38
2023-05-23T18:31:43.482Z,2.45
2023-05-23T18:34:15.658Z,4.93
2023-05-23T18:36:46.806Z,5.63
2023-05-23T18:39:19.466Z,5.82
2023-05-23T18:41:49.721Z,0.98
2023-05-23T18:44:20.652Z,1.98
2023-05-23T18:46:51.833Z,4.38
2023-05-23T18:49:23.080Z,6.07
2023-05-23T18:51:56.679Z,6.35
2023-05-23T18:54:28.248Z,1.48
2023-05-23T18:56:57.063Z,1.92
2023-05-23T18:59:27.819Z,5.13
2023-05-23T19:04:33.462Z,2.30
2023-05-23T19:07:02.527Z,4.78
2023-05-23T19:09:31.712Z,1.92
2023-05-23T19:12:00.625Z,1.38
2023-05-23T19:14:35.079Z,5.85
2023-05-23T19:17:07.069Z,1.35
2023-05-23T19:19:38.018Z,3.17
2023-05-23T19:22:08.004Z,5.30
2023-05-23T19:24:38.359Z,1.83
2023-05-23T19:27:07.349Z,3.17
2023-05-23T19:29:36.320Z,7.35
2023-05-23T19:32:05.766Z,1.55
2023-05-23T19:34:36.562Z,3.35
2023-05-23T19:37:08.322Z,1.23
2023-05-23T19:39:38.544Z,2.17
2023-05-23T19:42:10.302Z,1.95
2023-05-23T19:44:41.557Z,3.25
2023-05-23T19:47:10.375Z,2.58
2023-05-23T19:49:40.223Z,1.63
2023-05-23T19:52:08.760Z,5.05
2023-05-23T19:54:41.154Z,2.17
2023-05-23T19:57:12.520Z,7.93
2023-05-23T19:59:46.220Z,1.23
2023-05-23T20:02:19.275Z,3.78
2023-05-23T20:04:50.016Z,4.53
2023-05-23T20:07:18.749Z,4.60
2023-05-23T20:09:47.900Z,2.53
2023-05-23T20:12:16.369Z,1.67
2023-05-23T20:14:45.121Z,4.45
2023-05-23T20:17:15.774Z,5.63
2023-05-23T20:19:44.072Z,1.40
2023-05-23T20:22:13.881Z,1.63
2023-05-23T20:24:42.573Z,5.72
2023-05-23T20:27:11.067Z,2.08
2023-05-23T20:29:40.124Z,1.13
2023-05-23T20:32:11.009Z,1.90
2023-05-23T20:34:39.822Z,3.45
2023-05-23T20:37:13.483Z,1.20
2023-05-23T20:39:43.815Z,1.95
2023-05-23T20:42:15.097Z,2.47
2023-05-23T20:44:46.923Z,1.00
2023-05-23T20:47:18.748Z,2.67
2023-05-23T20:49:49.116Z,4.25
2023-05-23T20:52:17.688Z,3.17
2023-05-23T20:54:48.088Z,5.97
2023-05-23T20:57:19.878Z,2.53
2023-05-23T20:59:54.081Z,3.75
2023-05-23T21:02:22.622Z,4.50
2023-05-23T21:04:51.754Z,2.17
2023-05-23T21:07:20.607Z,2.05
2023-05-23T21:09:51.437Z,4.18
2023-05-23T21:12:21.971Z,5.82
2023-05-23T21:14:50.465Z,4.55
2023-05-23T21:17:21.752Z,3.67
2023-05-23T21:19:50.241Z,2.20
2023-05-23T21:22:18.803Z,4.50
2023-05-23T21:24:50.574Z,3.42
2023-05-23T21:27:22.869Z,1.58
2023-05-23T21:29:55.549Z,3.03
2023-05-23T21:32:24.896Z,1.25
2023-05-23T21:34:53.832Z,1.83
2023-05-23T21:37:27.601Z,3.83
2023-05-23T21:39:55.966Z,3.63
2023-05-23T21:42:26.278Z,2.95
2023-05-23T21:44:54.891Z,2.30
2023-05-23T21:47:25.064Z,1.58
2023-05-23T21:49:55.052Z,2.20
2023-05-23T21:52:23.757Z,8.73
2023-05-23T21:54:52.725Z,4.07
2023-05-23T21:57:24.049Z,0.68
2023-05-23T21:59:55.635Z,1.02
2023-05-23T22:02:24.060Z,2.35
2023-05-23T22:04:52.302Z,1.95
2023-05-23T22:07:25.279Z,1.00
2023-05-23T22:09:54.548Z,1.75
2023-05-23T22:12:23.731Z,2.72
2023-05-23T22:14:53.274Z,5.43
2023-05-23T22:17:22.939Z,1.83
2023-05-23T22:19:52.761Z,2.58
2023-05-23T22:22:24.742Z,2.03
2023-05-23T22:24:53.855Z,2.10
2023-05-23T22:27:22.454Z,3.47
2023-05-23T22:29:55.768Z,4.22
2023-05-23T22:32:26.711Z,3.95
2023-05-23T22:34:57.325Z,2.70
2023-05-23T22:37:36.490Z,0.80
2023-05-23T22:40:05.112Z,2.58
2023-05-23T22:42:40.370Z,3.88
2023-05-23T22:45:09.280Z,3.85
2023-05-23T22:47:48.405Z,1.92
2023-05-23T22:50:18.271Z,2.10
2023-05-23T22:52:50.719Z,2.58
2023-05-23T22:55:19.573Z,2.03
2023-05-23T22:57:49.060Z,1.38
2023-05-23T23:00:20.989Z,4.20
2023-05-23T23:03:08.675Z,0.50
2023-05-23T23:05:38.752Z,1.63
2023-05-23T23:08:10.164Z,2.83
2023-05-23T23:10:40.246Z,5.07
2023-05-23T23:13:13.555Z,1.50
2023-05-23T23:15:42.936Z,3.95
2023-05-23T23:18:14.902Z,2.67
2023-05-23T23:20:43.760Z,2.67
2023-05-23T23:23:12.382Z,3.13
2023-05-23T23:25:49.905Z,0.73
2023-05-23T23:28:20.218Z,1.35
2023-05-23T23:30:48.730Z,4.68
2023-05-23T23:33:33.408Z,1.05
2023-05-23T23:36:01.714Z,1.73
2023-05-23T23:38:35.711Z,0.77
2023-05-23T23:41:07.190Z,3.60
2023-05-23T23:43:37.148Z,2.95
2023-05-23T23:46:06.663Z,2.25
2023-05-23T23:48:35.459Z,5.30
2023-05-23T23:51:04.929Z,1.83
2023-05-23T23:53:34.104Z,5.38
2023-05-23T23:56:02.722Z,3.35
2023-05-23T23:58:33.116Z,4.65
